Easton, WA (98925)

11:51 AM PDT die 26o March, anno 2017 (GMT -0700)
Cle Elum Wa - GiddyLodge | | Change Station

Elev 2117 ft 47.21 °N, 121.11 °W | Updated 6 seconds ago

Aequaliter Nubila
Aequaliter Nubila
35.3 °F
Feels Like 35 °F
N
0.0
Ventus Variabilis Ventus from Inter Austrum et Eurum
Gusts 0.0 mph

Hodie
High -- | Low -- °F
--% Chance of Precip.
Yesterday
High -- | Low -- °F
Precip. -- in
Pressio 29.84 in
Visibilitas 0.2 milia passuum
Clouds
Frigus Venti 35 °F
Frigus in quo Ros apparet 34 °F
Umor 94%
Rainfall 0.02 in
Snow Depth Not available.
6:54 AM 7:26 PM
Waning Crescent, 2% visible
METAR KSMP 261756Z AUTO 11005KT 1/4SM -SN FZFG VV002 M01/M01 A2977 RMK AO2 SLP105 P0003 60004 T10111011 11011 21017 58003 $
Pressio 29.84 in
Visibilitas 0.2 milia passuum
Clouds
Frigus Venti 35 °F
Frigus in quo Ros apparet 34 °F
Umor 94%
Rainfall 0.02 in
Snow Depth Not available.
6:54 AM 7:26 PM
Waning Crescent, 2% visible
METAR KSMP 261756Z AUTO 11005KT 1/4SM -SN FZFG VV002 M01/M01 A2977 RMK AO2 SLP105 P0003 60004 T10111011 11011 21017 58003 $

Get Severe Weather Alerts

Thanks for signing up!

Be on the lookout for a verification email in your inbox.

You'll start receiving the daily forecast at 8 AM.

×

10-Day Weather Forecast

Almanac

Astronomy

Mar. 26, 2017 Rise Set
Actual Time
Civil Twilight
Nautical Twilight
Astronomical Twilight
Moon
Length Of Visible Light
Length of Day
Tomorrow will be .
, % of the Moon is Illuminated

Today's Extremes

State Highs State Lows

Community

WunderPhotos

Upload Photos

1,962,540 photos uploaded!

WunderBlog® & News

Nearby

Air Quality

  Air Quality AQ Index Pollutant
Not available.

Snow Depth

Station Depth Elevation

Earthquake Activity

City Distance Mag. Time & Date
Minimum magnitude displayed is 2.5.

Earthquake Activity

City Distance Mag. Time & Date
Minimum magnitude displayed is 2.5.

Coastal Water Temperatures

Locus Calor

Stations

Nearby Weather Stations

Station Location Temp Frigus Venti Frigus in quo Ros apparet Umor Ventus Precip. Elev Renovata Type
                   

Watches & Warnings

There are currently no watches in effect.